Terminal Aerodrome Forecast
Issued by NWS Bismarck, ND

Home | Current Version | Previous Version | Graphics & Text | Print | Product List | Glossary On
Versions: 1 2 3 4 5 6 7 8 9 10 11 12 13 14 15 16 17 18 19 20 21 22 23
857
FTUS43 KBIS 281003 AAA
TAFISN
TAF AMD
KISN 281003Z 2810/2906 07007KT P6SM OVC007
     FM281600 09007KT P6SM SCT007 BKN025
     FM281800 12007KT P6SM BKN035=

USA.gov is the U.S. government's official web portal to all federal, state and local government web resources and services.